createdAt,value
2022-10-18T00:02:38.975Z,98.00
2022-10-18T00:05:06.843Z,98.00
2022-10-18T00:08:01.904Z,98.10
2022-10-18T00:10:28.039Z,98.20
2022-10-18T00:13:00.211Z,98.50
2022-10-18T00:15:33.326Z,98.80
2022-10-18T00:18:14.811Z,98.20
2022-10-18T00:20:45.518Z,98.30
2022-10-18T00:23:12.897Z,98.00
2022-10-18T00:25:39.943Z,98.00
2022-10-18T00:28:11.402Z,98.00
2022-10-18T00:30:41.537Z,97.90
2022-10-18T00:33:09.159Z,97.90
2022-10-18T00:35:36.342Z,97.90
2022-10-18T00:38:06.630Z,97.90
2022-10-18T00:40:36.612Z,97.90
2022-10-18T00:43:06.500Z,98.00
2022-10-18T00:45:33.741Z,97.90
2022-10-18T00:48:05.380Z,98.00
2022-10-18T00:50:37.349Z,98.00
2022-10-18T00:53:12.562Z,98.10
2022-10-18T00:55:40.328Z,98.10
2022-10-18T00:58:08.347Z,98.10
2022-10-18T01:00:39.587Z,98.10
2022-10-18T01:03:08.323Z,97.90
2022-10-18T01:05:46.243Z,97.90
2022-10-18T01:08:48.762Z,97.70
2022-10-18T01:11:33.785Z,97.70
2022-10-18T01:14:26.139Z,97.70
2022-10-18T01:17:11.867Z,98.00
2022-10-18T01:20:07.444Z,97.90
2022-10-18T01:22:58.084Z,98.00
2022-10-18T01:25:47.497Z,97.90
2022-10-18T01:28:30.301Z,98.00
2022-10-18T01:31:02.177Z,97.80
2022-10-18T01:33:44.138Z,97.80
2022-10-18T01:36:36.623Z,97.80
2022-10-18T01:39:09.042Z,97.90
2022-10-18T01:41:39.264Z,98.00
2022-10-18T01:44:15.532Z,97.80
2022-10-18T01:46:45.660Z,97.90
2022-10-18T01:49:12.911Z,97.90
2022-10-18T01:51:40.700Z,97.70
2022-10-18T01:54:07.903Z,97.80
2022-10-18T01:56:47.054Z,97.60
2022-10-18T01:59:25.935Z,97.70
2022-10-18T02:01:58.792Z,97.60
2022-10-18T02:05:14.572Z,97.50
2022-10-18T02:08:12.159Z,97.50
2022-10-18T02:11:05.525Z,97.40
2022-10-18T02:13:57.985Z,97.40
2022-10-18T02:19:43.189Z,97.40
2022-10-18T02:22:13.044Z,97.50
2022-10-18T02:24:49.773Z,97.50
2022-10-18T02:27:24.701Z,97.50
2022-10-18T02:29:52.605Z,97.40
2022-10-18T02:32:53.203Z,97.40
2022-10-18T02:35:40.234Z,97.50
2022-10-18T02:38:09.756Z,97.60
2022-10-18T02:40:40.498Z,97.50
2022-10-18T02:43:11.005Z,97.50
2022-10-18T02:45:38.618Z,97.60
2022-10-18T02:48:06.785Z,97.60
2022-10-18T02:50:33.977Z,97.50
2022-10-18T02:53:00.966Z,97.50
2022-10-18T02:57:55.739Z,97.60
2022-10-18T03:00:28.334Z,97.60
2022-10-18T03:02:56.899Z,97.50
2022-10-18T03:05:28.254Z,97.50
2022-10-18T03:07:58.012Z,96.90
2022-10-18T03:10:26.199Z,96.90
2022-10-18T03:12:53.748Z,97.00
2022-10-18T03:15:23.589Z,97.00
2022-10-18T03:17:50.779Z,96.90
2022-10-18T03:20:19.857Z,96.90
2022-10-18T03:22:54.601Z,96.80
2022-10-18T03:25:22.681Z,96.90
2022-10-18T03:27:53.057Z,96.70
2022-10-18T03:30:21.436Z,96.80
2022-10-18T03:32:50.056Z,96.70
2022-10-18T03:35:26.762Z,96.60
2022-10-18T03:38:07.094Z,96.50
2022-10-18T03:40:36.527Z,96.60
2022-10-18T03:43:05.523Z,96.30
2022-10-18T03:45:32.713Z,96.40
2022-10-18T03:48:07.899Z,96.20
2022-10-18T03:50:35.329Z,96.10
2022-10-18T03:53:02.566Z,96.00
2022-10-18T03:55:35.094Z,95.70
2022-10-18T03:58:06.506Z,95.20
2022-10-18T04:00:36.482Z,94.90
2022-10-18T04:03:04.388Z,94.10
2022-10-18T04:05:37.118Z,94.20
2022-10-18T04:08:06.710Z,94.20
2022-10-18T04:10:36.995Z,94.00
2022-10-18T04:13:04.392Z,94.20
2022-10-18T04:15:34.850Z,93.90
2022-10-18T04:18:14.746Z,93.40
2022-10-18T04:20:42.112Z,92.80
2022-10-18T04:23:15.103Z,92.50
2022-10-18T04:25:58.349Z,92.60
2022-10-18T04:28:26.110Z,92.60
2022-10-18T04:30:54.043Z,92.60
2022-10-18T04:33:25.648Z,92.50
2022-10-18T04:35:56.123Z,92.50
2022-10-18T04:38:24.312Z,92.50
2022-10-18T04:40:51.821Z,92.60
2022-10-18T04:43:19.193Z,92.80
2022-10-18T04:45:48.328Z,92.40
2022-10-18T04:48:20.119Z,92.70
2022-10-18T04:50:51.097Z,92.60
2022-10-18T04:53:32.897Z,92.50
2022-10-18T04:56:02.939Z,92.50
2022-10-18T04:58:33.708Z,92.50
2022-10-18T05:01:05.969Z,92.50
2022-10-18T05:03:36.610Z,93.10
2022-10-18T05:06:11.308Z,92.60
2022-10-18T05:08:44.554Z,92.50
2022-10-18T05:11:14.750Z,92.50
2022-10-18T05:13:47.187Z,92.40
2022-10-18T05:16:20.820Z,92.40
2022-10-18T05:18:56.786Z,92.40
2022-10-18T05:21:27.029Z,92.80
2022-10-18T05:24:00.732Z,92.40
2022-10-18T05:26:34.450Z,93.00
2022-10-18T05:29:05.058Z,93.00
2022-10-18T05:31:33.426Z,92.30
2022-10-18T05:34:10.477Z,92.80
2022-10-18T05:36:41.462Z,92.20
2022-10-18T05:39:22.041Z,92.10
2022-10-18T05:41:51.814Z,92.20
2022-10-18T05:44:22.537Z,92.30
2022-10-18T05:46:58.960Z,92.20
2022-10-18T05:49:27.634Z,92.10
2022-10-18T05:51:56.696Z,92.50
2022-10-18T05:54:30.087Z,92.10
2022-10-18T05:57:00.155Z,92.00
2022-10-18T05:59:37.766Z,92.10
2022-10-18T06:02:19.832Z,92.10
2022-10-18T06:04:47.891Z,92.10
2022-10-18T06:07:18.343Z,92.00
2022-10-18T06:09:46.942Z,92.00
2022-10-18T06:12:14.700Z,91.90
2022-10-18T06:14:44.458Z,91.80
2022-10-18T06:17:26.796Z,91.80
2022-10-18T06:20:08.684Z,91.70
2022-10-18T06:22:37.020Z,91.70
2022-10-18T06:25:07.247Z,91.60
2022-10-18T06:27:38.789Z,91.50
2022-10-18T06:30:18.938Z,91.60
2022-10-18T06:32:46.336Z,91.50
2022-10-18T06:35:19.125Z,91.60
2022-10-18T06:37:57.759Z,91.50
2022-10-18T06:40:25.538Z,91.60
2022-10-18T06:43:20.211Z,91.40
2022-10-18T06:45:51.429Z,91.40
2022-10-18T06:48:23.322Z,91.50
2022-10-18T06:51:02.068Z,91.40
2022-10-18T06:53:32.236Z,91.40
2022-10-18T06:56:08.089Z,91.40
2022-10-18T06:58:43.542Z,91.40
2022-10-18T07:01:28.149Z,91.40
2022-10-18T07:04:07.210Z,91.40
2022-10-18T07:06:44.154Z,91.40
2022-10-18T07:09:18.230Z,91.50
2022-10-18T07:11:49.086Z,91.20
2022-10-18T07:14:22.308Z,90.80
2022-10-18T07:16:55.973Z,90.40
2022-10-18T07:19:26.331Z,90.30
2022-10-18T07:22:21.181Z,90.20
2022-10-18T07:24:48.939Z,89.70
2022-10-18T07:27:32.277Z,89.60
2022-10-18T07:30:19.575Z,89.50
2022-10-18T07:32:54.488Z,89.40
2022-10-18T07:35:28.619Z,89.60
2022-10-18T07:38:08.157Z,89.20
2022-10-18T07:40:40.825Z,89.30
2022-10-18T07:43:21.803Z,88.30
2022-10-18T07:45:57.916Z,88.10
2022-10-18T07:48:33.465Z,87.60
2022-10-18T07:51:04.929Z,86.70
2022-10-18T07:53:38.631Z,86.80
2022-10-18T07:56:18.517Z,86.80
2022-10-18T07:59:06.348Z,86.40
2022-10-18T08:01:45.238Z,86.20
2022-10-18T08:04:23.676Z,85.50
2022-10-18T08:06:52.763Z,83.20
2022-10-18T08:09:31.776Z,80.10
2022-10-18T08:12:06.854Z,78.40
2022-10-18T08:17:17.958Z,75.20
2022-10-18T08:20:12.065Z,71.40
2022-10-18T08:23:00.899Z,68.50
2022-10-18T08:25:38.691Z,65.50
2022-10-18T08:28:09.462Z,59.90
2022-10-18T08:30:55.397Z,56.80
2022-10-18T08:36:20.462Z,54.40
2022-10-18T08:39:25.668Z,51.40
2022-10-18T08:42:07.416Z,51.10
2022-10-18T08:45:30.046Z,51.50
2022-10-18T08:49:03.676Z,50.40
2022-10-18T08:51:43.058Z,50.70
2022-10-18T08:54:18.935Z,48.70
2022-10-18T08:57:15.910Z,47.60
2022-10-18T08:59:53.967Z,46.80
2022-10-18T09:06:06.638Z,44.70
2022-10-18T09:09:17.219Z,44.80
2022-10-18T09:12:01.960Z,43.80
2022-10-18T09:14:55.476Z,44.30
2022-10-18T09:18:34.530Z,44.20
2022-10-18T09:25:48.418Z,43.90
2022-10-18T09:28:17.819Z,44.20
2022-10-18T09:31:26.678Z,44.20
2022-10-18T09:34:08.780Z,44.30
2022-10-18T09:36:42.155Z,44.80
2022-10-18T09:39:38.772Z,44.50
2022-10-18T09:42:19.477Z,44.50
2022-10-18T09:44:56.479Z,46.00
2022-10-18T09:47:41.606Z,47.40
2022-10-18T09:50:35.592Z,48.60
2022-10-18T09:53:46.540Z,49.20
2022-10-18T09:56:18.077Z,50.50
2022-10-18T09:58:52.903Z,51.60
2022-10-18T10:01:29.583Z,52.00
2022-10-18T10:04:02.536Z,51.60
2022-10-18T10:06:37.798Z,50.70
2022-10-18T10:09:24.721Z,50.60
2022-10-18T10:11:52.917Z,49.80
2022-10-18T10:14:26.141Z,50.20
2022-10-18T10:17:23.227Z,51.30
2022-10-18T10:20:05.656Z,53.10
2022-10-18T10:22:44.708Z,53.90
2022-10-18T10:25:27.232Z,53.90
2022-10-18T10:27:56.361Z,53.50
2022-10-18T10:30:37.301Z,54.20
2022-10-18T10:33:06.010Z,55.70
2022-10-18T10:35:56.576Z,56.20
2022-10-18T10:38:36.032Z,55.90
2022-10-18T10:41:03.343Z,55.80
2022-10-18T10:43:40.667Z,55.60
2022-10-18T10:46:19.789Z,56.10
2022-10-18T10:49:34.910Z,56.10
2022-10-18T10:52:26.344Z,55.80
2022-10-18T10:54:55.759Z,56.30
2022-10-18T10:57:44.782Z,56.80
2022-10-18T11:00:45.174Z,56.70
2022-10-18T11:03:29.080Z,56.70
2022-10-18T11:06:01.186Z,56.90
2022-10-18T11:08:36.488Z,56.50
2022-10-18T11:11:28.247Z,55.90
2022-10-18T11:14:27.126Z,54.60
2022-10-18T11:17:16.907Z,54.30
2022-10-18T11:19:51.789Z,54.60
2022-10-18T11:22:42.037Z,55.20
2022-10-18T11:25:18.100Z,55.30
2022-10-18T11:28:12.609Z,54.60
2022-10-18T11:31:04.130Z,54.50
2022-10-18T11:34:09.855Z,54.10
2022-10-18T11:37:34.856Z,54.00
2022-10-18T11:40:46.273Z,53.80
2022-10-18T11:43:38.918Z,53.20
2022-10-18T11:46:47.647Z,54.00
2022-10-18T11:50:15.450Z,54.70
2022-10-18T11:53:20.788Z,55.40
2022-10-18T11:56:16.949Z,55.60
2022-10-18T11:59:08.237Z,55.60
2022-10-18T12:01:47.266Z,55.70
2022-10-18T12:04:28.121Z,56.30
2022-10-18T12:06:57.427Z,56.80
2022-10-18T12:09:43.177Z,57.00
2022-10-18T12:12:32.007Z,57.50
2022-10-18T12:15:29.451Z,58.00
2022-10-18T12:18:00.933Z,58.30
2022-10-18T12:20:51.611Z,58.70
2022-10-18T12:23:19.360Z,59.20
2022-10-18T12:25:59.871Z,59.30
2022-10-18T12:28:40.776Z,59.40
2022-10-18T12:31:39.113Z,59.90
2022-10-18T12:34:24.127Z,60.10
2022-10-18T12:37:30.458Z,60.50
2022-10-18T12:40:44.274Z,60.50
2022-10-18T12:43:19.252Z,60.60
2022-10-18T12:46:19.433Z,60.60
2022-10-18T12:49:10.889Z,60.60
2022-10-18T12:52:08.639Z,60.40
2022-10-18T12:55:10.351Z,60.30
2022-10-18T12:57:55.754Z,60.30
2022-10-18T13:01:07.135Z,60.60
2022-10-18T13:04:11.508Z,61.00
2022-10-18T13:07:18.550Z,61.30
2022-10-18T13:10:15.428Z,61.50
2022-10-18T13:13:38.169Z,61.50
2022-10-18T13:16:41.048Z,62.20
2022-10-18T13:19:35.551Z,62.40
2022-10-18T13:22:27.354Z,62.70
2022-10-18T13:25:07.330Z,63.00
2022-10-18T13:27:51.895Z,63.50
2022-10-18T13:30:27.653Z,63.80
2022-10-18T13:36:22.816Z,64.00
2022-10-18T13:38:56.691Z,64.10
2022-10-18T13:41:57.478Z,64.40
2022-10-18T13:47:36.421Z,64.60
2022-10-18T13:50:43.686Z,65.20
2022-10-18T13:53:42.533Z,65.50
2022-10-18T13:56:45.856Z,66.20
2022-10-18T13:59:50.463Z,66.60
2022-10-18T14:02:52.965Z,66.90
2022-10-18T14:06:22.555Z,67.30
2022-10-18T14:08:54.206Z,67.50
2022-10-18T14:11:47.282Z,67.40
2022-10-18T14:14:27.625Z,67.90
2022-10-18T14:17:07.128Z,68.10
2022-10-18T14:19:46.816Z,68.20
2022-10-18T14:23:02.215Z,68.70
2022-10-18T14:25:51.334Z,68.90
2022-10-18T14:28:31.487Z,69.30
2022-10-18T14:31:20.165Z,69.90
2022-10-18T14:33:58.893Z,70.20
2022-10-18T14:36:30.649Z,69.80
2022-10-18T14:39:06.810Z,69.90
2022-10-18T14:42:24.451Z,70.10
2022-10-18T14:44:56.537Z,70.00
2022-10-18T14:47:31.348Z,70.50
2022-10-18T14:50:05.261Z,70.60
2022-10-18T14:52:36.161Z,70.80
2022-10-18T14:55:16.585Z,71.00
2022-10-18T14:57:48.426Z,71.40
2022-10-18T15:00:41.834Z,71.90
2022-10-18T15:03:16.086Z,72.10
2022-10-18T15:06:06.575Z,72.10
2022-10-18T15:08:53.809Z,71.80
2022-10-18T15:11:21.889Z,71.30
2022-10-18T15:14:16.434Z,71.20
2022-10-18T15:16:44.551Z,71.10
2022-10-18T15:19:19.298Z,71.10
2022-10-18T15:25:37.600Z,71.70
2022-10-18T15:28:41.662Z,71.70
2022-10-18T15:31:40.231Z,71.70
2022-10-18T15:34:19.062Z,71.70
2022-10-18T15:36:54.158Z,71.50
2022-10-18T15:39:39.163Z,71.40
2022-10-18T15:42:22.514Z,71.50
2022-10-18T15:45:04.372Z,71.50
2022-10-18T15:47:48.263Z,71.50
2022-10-18T15:50:52.638Z,71.60
2022-10-18T15:53:36.833Z,71.90
2022-10-18T15:56:32.969Z,72.50
2022-10-18T15:59:06.504Z,72.70
2022-10-18T16:04:50.755Z,73.70
2022-10-18T16:07:22.486Z,74.20
2022-10-18T16:10:02.838Z,74.30
2022-10-18T16:12:40.896Z,74.60
2022-10-18T16:15:12.803Z,74.90
2022-10-18T16:17:49.005Z,75.30
2022-10-18T16:20:40.756Z,75.80
2022-10-18T16:23:45.559Z,76.00
2022-10-18T16:26:17.906Z,76.20
2022-10-18T16:28:54.251Z,76.20
2022-10-18T16:31:38.958Z,76.20
2022-10-18T16:34:32.767Z,76.20
2022-10-18T16:37:23.575Z,76.10
2022-10-18T16:39:58.237Z,76.30
2022-10-18T16:42:26.387Z,76.10
2022-10-18T16:44:55.324Z,76.00
2022-10-18T16:47:31.503Z,76.10
2022-10-18T16:50:40.862Z,76.10
2022-10-18T16:53:12.226Z,76.00
2022-10-18T16:55:42.970Z,75.90
2022-10-18T16:58:26.237Z,75.90
2022-10-18T17:00:54.309Z,75.90
2022-10-18T17:03:32.874Z,76.00
2022-10-18T17:06:00.490Z,76.00
2022-10-18T17:08:48.470Z,76.10
2022-10-18T17:14:10.812Z,76.30
2022-10-18T17:16:54.885Z,76.50
2022-10-18T17:19:30.489Z,76.40
2022-10-18T17:22:03.821Z,76.50
2022-10-18T17:24:31.662Z,76.40
2022-10-18T17:27:14.187Z,76.30
2022-10-18T17:29:42.148Z,76.30
2022-10-18T17:32:11.875Z,76.30
2022-10-18T17:34:39.273Z,76.10
2022-10-18T17:37:10.376Z,76.20
2022-10-18T17:39:41.127Z,76.30
2022-10-18T17:42:14.926Z,76.10
2022-10-18T17:44:46.675Z,76.30
2022-10-18T17:47:16.397Z,76.50
2022-10-18T17:49:52.784Z,76.60
2022-10-18T17:52:23.681Z,76.60
2022-10-18T17:54:54.530Z,76.70
2022-10-18T17:57:21.996Z,76.80
2022-10-18T17:59:57.622Z,77.00
2022-10-18T18:02:26.487Z,77.10
2022-10-18T18:04:55.594Z,77.40
2022-10-18T18:07:26.729Z,77.80
2022-10-18T18:09:57.387Z,78.10
2022-10-18T18:12:24.720Z,78.10
2022-10-18T18:14:52.067Z,78.50
2022-10-18T18:17:28.619Z,78.90
2022-10-18T18:20:01.573Z,79.00
2022-10-18T18:22:34.576Z,79.40
2022-10-18T18:25:12.706Z,79.30
2022-10-18T18:27:40.681Z,79.40
2022-10-18T18:30:12.659Z,79.50
2022-10-18T18:32:46.104Z,79.40
2022-10-18T18:35:15.057Z,79.60
2022-10-18T18:37:54.007Z,79.60
2022-10-18T18:40:24.454Z,79.70
2022-10-18T18:43:12.320Z,79.70
2022-10-18T18:45:45.039Z,80.10
2022-10-18T18:48:16.341Z,80.20
2022-10-18T18:50:51.293Z,80.50
2022-10-18T18:53:23.331Z,80.60
2022-10-18T18:55:55.145Z,80.60
2022-10-18T18:58:36.811Z,80.90
2022-10-18T19:01:25.228Z,81.20
2022-10-18T19:03:58.204Z,81.40
2022-10-18T19:06:32.041Z,81.70
2022-10-18T19:09:04.582Z,81.70
2022-10-18T19:11:38.931Z,82.20
2022-10-18T19:14:09.068Z,82.40
2022-10-18T19:16:41.818Z,82.60
2022-10-18T19:19:17.171Z,82.90
2022-10-18T19:21:54.599Z,83.00
2022-10-18T19:24:23.759Z,83.20
2022-10-18T19:26:58.971Z,83.30
2022-10-18T19:29:28.568Z,83.80
2022-10-18T19:32:08.040Z,84.10
2022-10-18T19:34:39.526Z,84.40
2022-10-18T19:40:09.941Z,84.90
2022-10-18T19:42:47.299Z,85.10
2022-10-18T19:45:14.960Z,85.40
2022-10-18T19:47:43.261Z,85.40
2022-10-18T19:50:17.035Z,85.40
2022-10-18T19:52:47.126Z,85.50
2022-10-18T19:55:21.366Z,85.80
2022-10-18T19:57:54.625Z,86.10
2022-10-18T20:00:22.361Z,86.00
2022-10-18T20:02:50.121Z,86.70
2022-10-18T20:05:17.437Z,86.10
2022-10-18T20:07:47.796Z,86.70
2022-10-18T20:10:15.048Z,86.70
2022-10-18T20:15:29.865Z,86.50
2022-10-18T20:18:00.182Z,86.50
2022-10-18T20:20:30.273Z,86.60
2022-10-18T20:23:08.677Z,86.60
2022-10-18T20:25:36.101Z,86.70
2022-10-18T20:28:08.622Z,86.70
2022-10-18T20:30:37.999Z,86.80
2022-10-18T20:33:14.495Z,86.80
2022-10-18T20:35:46.721Z,86.80
2022-10-18T20:38:17.982Z,86.90
2022-10-18T20:40:49.045Z,86.90
2022-10-18T20:43:18.913Z,86.70
2022-10-18T20:45:56.543Z,86.70
2022-10-18T20:48:24.767Z,86.80
2022-10-18T20:50:56.146Z,86.70
2022-10-18T20:53:26.756Z,86.80
2022-10-18T20:56:07.979Z,86.90
2022-10-18T20:58:39.507Z,87.00
2022-10-18T21:01:16.675Z,87.00
2022-10-18T21:03:46.529Z,87.00
2022-10-18T21:06:28.573Z,87.00
2022-10-18T21:09:01.128Z,87.10
2022-10-18T21:11:30.319Z,87.10
2022-10-18T21:14:03.080Z,87.40
2022-10-18T21:16:35.512Z,87.50
2022-10-18T21:19:05.421Z,87.60
2022-10-18T21:21:32.849Z,87.80
2022-10-18T21:24:02.605Z,87.90
2022-10-18T21:26:39.209Z,88.00
2022-10-18T21:29:27.346Z,88.00
2022-10-18T21:32:00.097Z,87.90
2022-10-18T21:34:27.464Z,88.10
2022-10-18T21:36:56.234Z,88.00
2022-10-18T21:39:25.328Z,87.90
2022-10-18T21:41:56.088Z,88.00
2022-10-18T21:44:23.644Z,87.40
2022-10-18T21:46:50.875Z,87.80
2022-10-18T21:49:18.233Z,87.70
2022-10-18T21:51:46.019Z,87.20
2022-10-18T21:54:17.148Z,87.00
2022-10-18T21:56:49.538Z,87.00
2022-10-18T21:59:16.816Z,86.90
2022-10-18T22:01:45.120Z,86.90
2022-10-18T22:04:25.689Z,86.70
2022-10-18T22:06:52.981Z,86.70
2022-10-18T22:09:21.669Z,86.70
2022-10-18T22:11:52.015Z,86.70
2022-10-18T22:14:28.816Z,86.60
2022-10-18T22:16:58.836Z,86.50
2022-10-18T22:19:34.477Z,86.30
2022-10-18T22:22:09.642Z,86.20
2022-10-18T22:24:37.286Z,86.20
2022-10-18T22:27:12.536Z,86.00
2022-10-18T22:29:40.959Z,86.00
2022-10-18T22:32:08.367Z,86.00
2022-10-18T22:34:36.453Z,86.00
2022-10-18T22:37:06.685Z,85.80
2022-10-18T22:39:41.299Z,85.90
2022-10-18T22:42:11.737Z,86.00
2022-10-18T22:44:39.850Z,86.10
2022-10-18T22:47:07.595Z,86.00
2022-10-18T22:49:38.117Z,86.80
2022-10-18T22:52:11.294Z,87.20
2022-10-18T22:54:42.420Z,87.40
2022-10-18T22:57:16.571Z,87.80
2022-10-18T22:59:44.084Z,87.80
2022-10-18T23:02:15.959Z,88.20
2022-10-18T23:04:43.283Z,88.30
2022-10-18T23:07:11.197Z,88.60
2022-10-18T23:10:05.440Z,88.70
2022-10-18T23:12:33.411Z,88.90
2022-10-18T23:15:01.095Z,89.20
2022-10-18T23:17:33.917Z,89.30
2022-10-18T23:20:06.217Z,89.60
2022-10-18T23:22:36.543Z,89.90
2022-10-18T23:25:04.094Z,90.10
2022-10-18T23:27:32.208Z,90.50
2022-10-18T23:30:06.640Z,90.70
2022-10-18T23:32:34.780Z,91.00
2022-10-18T23:35:02.566Z,90.90
2022-10-18T23:37:31.058Z,91.10
2022-10-18T23:39:58.766Z,91.30
2022-10-18T23:42:31.424Z,91.30
2022-10-18T23:45:00.734Z,91.50
2022-10-18T23:47:27.910Z,91.70
2022-10-18T23:49:59.130Z,91.80
2022-10-18T23:52:36.179Z,91.80
2022-10-18T23:55:06.820Z,92.00
2022-10-18T23:57:37.330Z,92.00
